14:32
Airports
History
Links
Donate
Help keep this website running!
PayPal
Bitcoin
Information on this page is community maintained and may be outdated or inaccurate and is intended for reference only or PC simulator navigating!
Always use approved charts for navigating.
IA76
Cobb Farm
Cobb Farm (IA76)
Corydon, Iowa, United States (50060)
4
Lat/Lng:40° 43' 41.02" N / 93° 20' 35.76" W
40.728062 / -93.343268
Elevation:1100'ft 335mMSL
ID / ICAO:IA76
Runways:1
Longest:(17-35) 756.4m 2,482ft Grass
Distance To
Airport ID:
Nearby VORs <50NM
Nearby NDBs
Nearby WeatherUpdated 03-30-17 14:15 GMT
Nearby weather at KCNC, Chariton Muni located 20.2 nautical miles from IA76
Altimeter: 29.64
Visibility: 1.0 statute miles
Wind: 12 knots (040°)
Temp: 6°c 43°f
Humidity: 100.0%

METAR: KCNC 301415Z AUTO 04012G17KT 1SM BR OVC003 06/06 A2964 RMK AO2

(Powered by phpweather)
Runway 17 / 35
Dimensions:756.4 x 22.9m 2482' x 75'ft
Surface:Grass
Runway 17 [A]Runway 35 [B]
Heading:173°TH 353°TH
Lat:
Lng:
40° 43' 53.3"N
93° 20' 37.47"W
40° 43' 28.75"N
93° 20' 34.06"W
Google Map
Nearby Airports
4 Grismore 3.5 NM
IA07 NE 40°
(R) Moore Private 10.8 NM
0IA5 NNE 22°
(R) Watkins Private 13.1 NM
5IA3 NW 307°
(U) Chariton Muni 20.2 NM
KCNC (WX) N 357°
(U) Unionville Muni 21.1 NM
K43 SE 127°
(U) Centerville Muni 23.4 NM
KTVK E 97°
4 Rathbun Lake 26.8 NM
IA05 ENE 71°
VFR Chart
Flight Planning at SkyVector.com